Time;durP1;ratioP1;P1;durP2;ratioP2;P2;SDS_P1;SDS_P2;PMS_P1;PMS_P2;Temp;Humidity;BMP_temperature;BMP_pressure;BME280_temperature;BME280_humidity;BME280_pressure;Samples;Min_cycle;Max_cycle;Signal;HPM_P1;HPM_P2
2021/11/11 00:02:04;;;;;;;21.93;19.63;;;;;;;4.16;80.70;99360.28;5000907;28;103219;-68
2021/11/11 00:04:34;;;;;;;20.50;18.45;;;;;;;4.25;80.77;99360.81;5008773;28;102695;-68
2021/11/11 00:07:04;;;;;;;20.57;18.37;;;;;;;4.31;80.46;99357.13;4998744;28;103189;-60
2021/11/11 00:09:35;;;;;;;17.50;15.77;;;;;;;4.45;81.33;99362.69;5004889;28;103275;-59
2021/11/11 00:12:04;;;;;;;17.92;16.13;;;;;;;4.59;81.22;99365.66;4996897;28;103325;-60
2021/11/11 00:14:32;;;;;;;19.73;17.67;;;;;;;4.63;81.15;99357.63;5005593;28;102624;-60
2021/11/11 00:17:01;;;;;;;23.40;20.97;;;;;;;3.82;83.70;99356.25;5004963;28;102615;-60
2021/11/11 00:19:29;;;;;;;20.58;18.65;;;;;;;4.20;83.48;99356.66;4986063;28;103240;-68
2021/11/11 00:21:57;;;;;;;19.17;17.38;;;;;;;4.26;82.63;99354.69;4984195;28;104132;-68
2021/11/11 00:24:26;;;;;;;15.87;14.37;;;;;;;4.46;82.20;99357.41;4985809;28;102754;-67
2021/11/11 00:26:56;;;;;;;23.23;20.73;;;;;;;4.03;81.54;99344.19;4993097;28;102778;-67
2021/11/11 00:29:27;;;;;;;22.05;19.73;;;;;;;4.03;82.57;99350.28;4991020;28;103259;-67
2021/11/11 00:31:55;;;;;;;20.97;18.80;;;;;;;4.22;82.31;99360.06;4985305;28;104138;-68
2021/11/11 00:34:23;;;;;;;20.10;18.08;;;;;;;4.27;81.32;99363.38;4975751;28;102936;-61
2021/11/11 00:36:51;;;;;;;23.45;21.05;;;;;;;3.67;83.05;99354.19;4979365;28;102806;-60
2021/11/11 00:39:19;;;;;;;29.13;24.15;;;;;;;2.95;87.15;99349.59;5004150;28;103408;-61
2021/11/11 00:41:48;;;;;;;26.33;23.63;;;;;;;2.85;89.61;99351.66;5009182;28;103327;-61
2021/11/11 00:44:17;;;;;;;22.45;20.13;;;;;;;3.57;88.36;99347.56;4978478;28;102802;-61
2021/11/11 00:46:46;;;;;;;16.48;14.93;;;;;;;3.99;86.62;99353.91;4974688;28;102844;-61
2021/11/11 00:49:17;;;;;;;16.80;15.18;;;;;;;4.11;85.02;99350.00;4990157;28;103111;-61
2021/11/11 00:51:45;;;;;;;15.60;14.20;;;;;;;4.26;82.98;99352.06;4980218;28;103217;-61
2021/11/11 00:54:13;;;;;;;16.05;14.45;;;;;;;4.34;82.06;99350.03;4995678;28;102684;-61
2021/11/11 00:56:41;;;;;;;20.37;18.27;;;;;;;4.34;80.92;99355.25;4980969;28;102784;-61
2021/11/11 00:59:11;;;;;;;18.85;17.02;;;;;;;4.40;81.22;99365.50;4983750;28;105817;-61
2021/11/11 01:01:39;;;;;;;16.80;15.20;;;;;;;4.44;80.58;99359.22;4979509;28;103173;-61
2021/11/11 01:04:08;;;;;;;20.35;18.38;;;;;;;4.33;79.89;99352.69;5007534;28;102788;-61
2021/11/11 01:06:36;;;;;;;21.40;18.77;;;;;;;4.30;79.25;99342.31;4990016;28;102713;-62
2021/11/11 01:09:04;;;;;;;21.83;19.73;;;;;;;4.08;79.77;99343.13;4999796;28;103528;-60
2021/11/11 01:11:32;;;;;;;22.88;20.65;;;;;;;3.75;81.57;99335.63;5004564;28;103219;-68
2021/11/11 01:14:17;;;;;;;23.13;20.75;;;;;;;3.42;83.67;99335.03;5002943;28;102580;-68
2021/11/11 01:16:45;;;;;;;23.23;20.83;;;;;;;3.50;83.41;99344.31;4995605;28;102703;-67
2021/11/11 01:19:14;;;;;;;24.60;22.07;;;;;;;3.20;83.11;99337.47;5002573;28;104029;-60
2021/11/11 01:21:42;;;;;;;18.83;17.02;;;;;;;3.57;83.75;99329.25;4981281;28;103432;-61
2021/11/11 01:24:10;;;;;;;21.63;19.42;;;;;;;3.58;82.24;99330.97;4981866;28;102776;-62
2021/11/11 01:26:38;;;;;;;20.92;18.70;;;;;;;3.60;81.91;99329.16;5000659;28;103082;-60
2021/11/11 01:29:07;;;;;;;16.80;15.20;;;;;;;3.82;83.33;99331.88;4980062;28;105014;-61
2021/11/11 01:31:37;;;;;;;17.33;15.63;;;;;;;3.97;82.43;99334.81;4986610;28;105919;-67
2021/11/11 01:34:08;;;;;;;17.10;15.50;;;;;;;4.02;81.77;99335.50;5012650;28;102576;-61
2021/11/11 01:36:40;;;;;;;15.55;14.07;;;;;;;4.08;82.11;99343.13;5009325;28;104141;-61
2021/11/11 01:39:14;;;;;;;13.90;12.52;;;;;;;4.22;81.55;99349.59;5000198;28;104639;-68
2021/11/11 01:41:57;;;;;;;16.15;14.57;;;;;;;4.19;81.32;99339.25;4982160;28;103194;-68
2021/11/11 01:44:25;;;;;;;20.38;18.38;;;;;;;3.57;81.86;99337.09;4993959;28;102697;-68
2021/11/11 01:46:56;;;;;;;19.87;17.87;;;;;;;3.24;84.08;99336.47;4982506;28;103031;-68
2021/11/11 01:49:26;;;;;;;20.45;18.35;;;;;;;3.15;85.50;99338.53;4986244;28;103252;-68
2021/11/11 01:51:56;;;;;;;15.82;14.32;;;;;;;3.52;84.26;99328.56;4987108;28;104403;-68
2021/11/11 01:54:26;;;;;;;15.50;14.00;;;;;;;3.84;83.88;99336.16;5008380;28;102693;-68
2021/11/11 01:56:58;;;;;;;14.95;13.52;;;;;;;4.00;81.79;99336.47;4990144;28;102889;-68
2021/11/11 01:59:31;;;;;;;14.53;13.13;;;;;;;4.05;81.54;99331.91;4984947;28;105594;-68
2021/11/11 02:02:04;;;;;;;17.83;16.07;;;;;;;3.83;80.66;99334.44;4978070;28;103523;-67
2021/11/11 02:04:40;;;;;;;15.10;13.68;;;;;;;3.91;80.56;99328.94;4982834;28;102739;-69
2021/11/11 02:07:08;;;;;;;19.23;17.17;;;;;;;3.90;80.22;99328.06;4986705;28;102711;-69
2021/11/11 02:09:44;;;;;;;19.33;17.33;;;;;;;3.58;80.72;99325.75;4988300;28;105283;-68
2021/11/11 02:12:18;;;;;;;21.77;19.63;;;;;;;2.86;83.69;99327.25;5005331;28;103264;-69
2021/11/11 02:14:57;;;;;;;23.23;20.90;;;;;;;2.29;87.47;99319.44;4994067;28;102682;-67
2021/11/11 02:17:31;;;;;;;26.05;22.90;;;;;;;2.02;90.50;99319.41;4985712;28;103061;-67
2021/11/11 02:20:23;;;;;;;20.50;18.43;;;;;;;2.53;90.80;99309.16;4996825;28;104099;-68
2021/11/11 02:23:15;;;;;;;21.23;18.98;;;;;;;2.53;90.50;99310.03;4998283;28;104107;-67
2021/11/11 02:25:59;;;;;;;22.40;19.95;;;;;;;2.90;87.51;99299.31;5011513;28;102643;-69
2021/11/11 02:28:53;;;;;;;19.73;17.83;;;;;;;3.13;87.60;99301.16;5003693;28;102762;-68
2021/11/11 02:31:25;;;;;;;21.42;19.27;;;;;;;2.88;87.01;99299.38;4980743;28;103254;-68
2021/11/11 02:33:57;;;;;;;30.58;24.25;;;;;;;2.35;90.73;99302.78;4997116;28;103331;-68
2021/11/11 02:36:55;;;;;;;18.92;17.13;;;;;;;3.03;90.10;99307.59;5001389;28;102569;-68
2021/11/11 02:39:30;;;;;;;21.17;19.00;;;;;;;3.39;87.88;99314.22;4993936;28;102795;-67
2021/11/11 02:41:59;;;;;;;16.38;14.88;;;;;;;3.59;85.46;99303.94;4982289;28;104627;-68
2021/11/11 02:44:31;;;;;;;21.20;19.08;;;;;;;3.07;83.63;99306.59;4988149;28;103376;-68
2021/11/11 02:47:01;;;;;;;16.60;15.10;;;;;;;3.28;83.89;99296.31;4987290;28;102776;-68
2021/11/11 02:49:37;;;;;;;20.77;18.67;;;;;;;2.79;83.41;99302.25;4994923;28;103823;-68
2021/11/11 02:52:08;;;;;;;21.50;19.38;;;;;;;2.82;85.64;99299.56;4990966;28;104269;-67
2021/11/11 02:54:38;;;;;;;26.42;23.60;;;;;;;2.27;90.06;99312.59;4990158;28;103228;-68
2021/11/11 02:57:24;;;;;;;28.92;25.95;;;;;;;2.35;91.56;99305.38;4984071;28;102832;-61
2021/11/11 02:59:55;;;;;;;34.58;29.05;;;;;;;2.17;93.86;99306.75;4994775;28;102695;-60
2021/11/11 03:02:25;;;;;;;26.55;23.73;;;;;;;2.70;92.22;99306.91;4995966;28;104480;-69
2021/11/11 03:04:56;;;;;;;29.23;26.08;;;;;;;2.80;91.55;99308.34;4986599;28;103412;-67
2021/11/11 03:07:29;;;;;;;29.55;26.38;;;;;;;2.60;92.18;99311.56;4977282;28;104359;-67
2021/11/11 03:09:58;;;;;;;30.77;27.13;;;;;;;2.72;91.63;99302.50;4981126;28;104105;-68
2021/11/11 03:12:27;;;;;;;34.73;29.73;;;;;;;2.15;94.65;99295.53;4986871;28;103233;-68
2021/11/11 03:14:58;;;;;;;37.88;32.15;;;;;;;1.89;95.41;99300.63;4988735;28;103454;-68
2021/11/11 03:17:26;;;;;;;33.47;29.58;;;;;;;1.88;95.84;99303.28;4991938;28;102624;-67
2021/11/11 03:19:54;;;;;;;35.13;31.35;;;;;;;1.89;95.53;99300.63;5006711;28;102697;-67
2021/11/11 03:22:23;;;;;;;33.60;28.57;;;;;;;2.03;94.05;99297.63;4990072;28;102904;-68
2021/11/11 03:24:56;;;;;;;34.92;29.05;;;;;;;2.03;93.55;99300.22;4981897;28;103196;-67
2021/11/11 03:27:32;;;;;;;35.47;31.45;;;;;;;1.91;93.63;99298.00;5005612;28;102691;-60
2021/11/11 03:30:01;;;;;;;40.17;34.78;;;;;;;1.46;96.14;99300.94;4999056;28;102625;-61
2021/11/11 03:32:30;;;;;;;35.72;31.90;;;;;;;1.52;97.35;99292.09;4991673;28;103738;-60
2021/11/11 03:35:01;;;;;;;35.55;31.65;;;;;;;1.67;96.81;99294.31;4992196;28;105435;-60
2021/11/11 03:37:30;;;;;;;42.60;35.00;;;;;;;1.37;98.04;99289.91;4982663;28;102625;-60
2021/11/11 03:40:00;;;;;;;38.17;34.05;;;;;;;1.44;98.37;99301.88;4991658;28;103144;-60
2021/11/11 03:42:28;;;;;;;39.15;32.50;;;;;;;1.48;98.37;99306.97;4989578;28;104866;-69
2021/11/11 03:44:56;;;;;;;40.42;35.75;;;;;;;1.11;98.72;99314.00;4984264;28;103217;-68
2021/11/11 03:47:27;;;;;;;40.63;34.67;;;;;;;1.02;99.54;99312.47;4979431;28;102554;-69
2021/11/11 03:49:56;;;;;;;35.47;31.58;;;;;;;1.30;99.12;99302.22;4998157;28;104331;-67
2021/11/11 03:52:26;;;;;;;34.58;30.73;;;;;;;1.52;97.88;99308.59;4988919;28;103200;-68
2021/11/11 03:54:54;;;;;;;24.15;21.75;;;;;;;2.25;96.70;99307.38;5013744;28;103229;-68
2021/11/11 03:57:25;;;;;;;26.98;24.17;;;;;;;2.51;93.60;99301.41;4989739;28;102924;-68
2021/11/11 03:59:55;;;;;;;30.02;26.88;;;;;;;2.32;91.03;99310.69;4981722;28;104229;-60
2021/11/11 04:02:27;;;;;;;29.37;26.37;;;;;;;2.10;91.58;99309.59;4982158;28;103244;-69
2021/11/11 04:04:55;;;;;;;29.23;26.00;;;;;;;2.23;92.22;99308.34;5007198;28;103230;-68
2021/11/11 04:07:24;;;;;;;30.38;27.10;;;;;;;1.70;94.81;99308.09;4986637;28;103184;-69
2021/11/11 04:09:56;;;;;;;23.93;21.53;;;;;;;2.34;92.99;99308.88;4976337;28;104138;-68
2021/11/11 04:12:28;;;;;;;23.70;21.20;;;;;;;2.36;91.97;99311.47;4981010;28;103216;-68
2021/11/11 04:14:56;;;;;;;28.48;25.58;;;;;;;2.17;90.99;99316.34;4986010;28;103480;-67
2021/11/11 04:17:26;;;;;;;23.25;20.88;;;;;;;2.57;91.62;99314.25;4983633;28;102660;-68
2021/11/11 04:19:54;;;;;;;19.27;17.40;;;;;;;2.94;89.98;99306.16;4984733;28;103253;-60
2021/11/11 04:22:22;;;;;;;19.90;17.95;;;;;;;2.87;88.54;99313.31;4985566;28;104535;-60
2021/11/11 04:24:51;;;;;;;22.08;19.85;;;;;;;2.80;86.27;99319.63;4980887;28;105230;-68
2021/11/11 04:27:24;;;;;;;22.40;20.10;;;;;;;2.54;87.11;99318.72;4991829;28;102894;-68
2021/11/11 04:30:03;;;;;;;24.27;21.88;;;;;;;2.38;87.38;99314.88;4983861;28;102976;-61
2021/11/11 04:32:31;;;;;;;26.10;23.45;;;;;;;1.86;91.12;99321.56;4980573;28;103617;-60
2021/11/11 04:35:00;;;;;;;31.55;22.38;;;;;;;1.92;92.47;99316.19;4977952;28;103398;-68
2021/11/11 04:37:32;;;;;;;54.63;25.92;;;;;;;1.51;91.89;99314.72;4984376;28;102842;-69
2021/11/11 04:46:00;;;;;;;84.28;32.88;;;;;;;0.76;97.39;99332.22;4998966;28;103444;-68
2021/11/11 05:05:08;;;;;;;165.48;32.65;;;;;;;0.86;96.36;99357.13;4978802;28;106365;-67
2021/11/11 05:07:39;;;;;;;62.63;27.23;;;;;;;1.01;97.37;99361.97;4980354;28;103396;-68
2021/11/11 05:10:10;;;;;;;49.88;23.40;;;;;;;1.52;95.74;99359.81;4985129;28;103045;-67
2021/11/11 05:12:39;;;;;;;17.07;15.47;;;;;;;2.16;94.80;99345.94;4985472;28;102857;-68
2021/11/11 05:15:09;;;;;;;14.77;13.43;;;;;;;2.50;93.58;99349.25;4998277;28;103238;-68
2021/11/11 05:17:41;;;;;;;14.98;13.57;;;;;;;2.68;91.65;99343.50;4984179;28;105588;-68
2021/11/11 05:20:11;;;;;;;17.88;16.17;;;;;;;2.76;91.22;99348.47;4985807;28;102654;-68
2021/11/11 05:22:43;;;;;;;15.23;13.82;;;;;;;2.90;89.74;99357.59;5001793;28;103015;-68
2021/11/11 05:25:14;;;;;;;19.08;17.08;;;;;;;2.91;89.07;99354.09;4987057;28;103686;-68
2021/11/11 05:27:44;;;;;;;35.95;18.23;;;;;;;2.80;87.39;99352.69;4981406;28;103539;-68
2021/11/11 05:30:16;;;;;;;15.17;13.77;;;;;;;2.95;87.44;99354.00;4988236;28;102867;-69
2021/11/11 05:32:46;;;;;;;22.58;19.05;;;;;;;2.57;86.21;99352.53;4986534;28;104175;-70
2021/11/11 05:35:18;;;;;;;96.55;28.42;;;;;;;1.32;91.48;99347.28;4984271;28;103223;-70
2021/11/11 05:37:47;;;;;;;23.45;21.02;;;;;;;1.95;91.60;99341.28;4974668;28;103542;-70
2021/11/11 05:40:18;;;;;;;20.07;18.07;;;;;;;2.20;91.42;99337.97;5006429;28;102853;-70
2021/11/11 05:42:48;;;;;;;15.75;14.32;;;;;;;2.71;90.30;99337.31;4989974;28;103078;-71
2021/11/11 05:45:17;;;;;;;16.08;14.48;;;;;;;2.92;88.79;99334.88;4985915;28;104263;-70
2021/11/11 05:47:50;;;;;;;20.67;18.57;;;;;;;2.79;86.93;99328.34;4988792;28;103233;-70
2021/11/11 05:50:20;;;;;;;17.83;16.10;;;;;;;3.00;87.08;99331.19;4981328;28;102858;-69
2021/11/11 05:52:49;;;;;;;21.13;18.92;;;;;;;3.02;85.79;99330.25;4981710;28;102909;-70
2021/11/11 05:55:21;;;;;;;28.42;25.38;;;;;;;2.01;90.09;99325.50;4985142;28;105283;-69
2021/11/11 05:57:49;;;;;;;28.00;25.00;;;;;;;2.05;90.35;99332.34;4992291;28;103354;-69
2021/11/11 06:00:19;;;;;;;28.00;24.98;;;;;;;1.79;91.54;99334.81;4972780;28;102837;-69
2021/11/11 06:03:02;;;;;;;33.17;29.67;;;;;;;1.43;94.16;99350.47;4981168;28;102750;-71
2021/11/11 06:05:32;;;;;;;34.97;31.10;;;;;;;1.15;95.59;99350.31;5002191;28;103989;-69
2021/11/11 06:08:02;;;;;;;34.45;29.83;;;;;;;0.87;96.16;99353.63;4974951;28;103357;-71
2021/11/11 06:10:30;;;;;;;45.25;29.65;;;;;;;0.67;98.47;99361.03;4971250;28;102852;-70
2021/11/11 06:12:58;;;;;;;40.53;30.07;;;;;;;0.62;98.88;99366.31;4973485;28;103101;-72
2021/11/11 06:15:27;;;;;;;31.95;26.15;;;;;;;0.97;99.58;99355.97;4971520;28;103160;-69
2021/11/11 06:17:58;;;;;;;30.77;27.13;;;;;;;1.09;97.59;99362.66;5003469;28;104368;-68
2021/11/11 06:20:31;;;;;;;30.40;27.10;;;;;;;1.25;97.26;99363.97;4975002;28;102825;-69
2021/11/11 06:23:02;;;;;;;21.33;19.13;;;;;;;1.91;95.50;99366.56;4972461;28;102928;-69
2021/11/11 06:25:31;;;;;;;27.35;23.00;;;;;;;2.13;93.50;99346.00;4975721;28;103241;-68
2021/11/11 06:28:03;;;;;;;26.88;23.05;;;;;;;1.84;93.39;99352.03;4985163;28;103214;-68
2021/11/11 06:30:32;;;;;;;24.55;21.27;;;;;;;2.30;92.99;99357.66;4954494;28;102717;-68
2021/11/11 06:33:01;;;;;;;19.07;17.17;;;;;;;2.62;90.87;99361.94;4969768;28;102907;-69
2021/11/11 06:35:33;;;;;;;34.47;25.98;;;;;;;2.16;90.09;99372.00;4969348;28;105225;-70
2021/11/11 06:38:02;;;;;;;38.95;26.10;;;;;;;2.05;91.00;99381.88;4959392;28;103420;-68
2021/11/11 06:40:32;;;;;;;20.83;18.73;;;;;;;2.60;91.49;99387.22;4983718;28;102636;-69
2021/11/11 06:43:01;;;;;;;23.33;20.80;;;;;;;2.77;89.40;99381.50;4989518;28;102640;-68
2021/11/11 06:45:35;;;;;;;25.88;23.17;;;;;;;2.50;88.07;99380.53;4961934;28;104392;-70
2021/11/11 06:48:04;;;;;;;57.25;26.33;;;;;;;2.11;91.12;99379.94;4988361;28;103215;-69
2021/11/11 06:50:33;;;;;;;41.80;23.38;;;;;;;2.34;91.15;99379.28;4964183;28;102860;-69
2021/11/11 06:53:10;;;;;;;85.68;28.05;;;;;;;1.82;91.74;99366.00;4979501;28;104592;-69
2021/11/11 06:55:39;;;;;;;37.53;22.90;;;;;;;1.80;94.42;99367.78;4974849;28;103858;-69
2021/11/11 06:58:08;;;;;;;109.47;30.27;;;;;;;1.45;94.75;99377.38;4977045;28;103747;-69
2021/11/11 07:00:38;;;;;;;166.88;32.92;;;;;;;1.31;97.06;99379.44;4958884;28;102760;-69
2021/11/11 07:03:09;;;;;;;121.23;33.90;;;;;;;1.35;96.66;99386.28;4960718;28;104056;-70
2021/11/11 07:05:44;;;;;;;71.35;28.25;;;;;;;1.44;95.87;99390.41;4966304;28;103342;-70
2021/11/11 07:08:13;;;;;;;50.17;26.02;;;;;;;1.56;97.08;99396.19;4972183;28;103225;-70
2021/11/11 07:10:43;;;;;;;46.97;25.17;;;;;;;1.63;96.75;99397.72;4982686;28;103050;-70
2021/11/11 07:13:11;;;;;;;69.53;27.03;;;;;;;1.60;95.12;99403.00;4977549;28;103372;-69
2021/11/11 07:15:42;;;;;;;144.75;29.33;;;;;;;1.45;96.02;99387.78;4978020;28;103381;-70
2021/11/11 07:18:13;;;;;;;357.35;40.22;;;;;;;1.00;97.85;99388.88;4972061;28;103594;-69
2021/11/11 07:20:44;;;;;;;133.38;26.85;;;;;;;1.35;99.14;99381.06;4983092;28;102843;-69
2021/11/11 07:23:14;;;;;;;139.68;25.33;;;;;;;1.79;97.09;99386.91;4976934;28;103128;-69
2021/11/11 07:25:44;;;;;;;267.27;31.98;;;;;;;1.54;96.69;99392.75;4970425;28;103258;-70
2021/11/11 07:28:14;;;;;;;153.25;27.92;;;;;;;1.43;98.93;99394.75;4977021;28;103213;-61
2021/11/11 07:30:44;;;;;;;263.05;30.92;;;;;;;1.25;99.44;99403.03;4994642;27;102956;-61
2021/11/11 07:33:12;;;;;;;69.88;20.52;;;;;;;1.92;99.22;99403.94;5000030;27;102732;-61
2021/11/11 07:35:41;;;;;;;176.98;27.38;;;;;;;1.93;96.56;99411.72;5015456;27;104665;-61
2021/11/11 07:38:10;;;;;;;489.38;41.30;;;;;;;1.51;98.04;99408.47;5014146;27;102857;-61
2021/11/11 07:40:40;;;;;;;326.23;33.63;;;;;;;1.47;100.00;99405.94;5023590;27;103102;-62
2021/11/11 07:43:08;;;;;;;255.90;28.42;;;;;;;1.98;98.79;99414.19;5019481;27;104405;-62
2021/11/11 07:45:38;;;;;;;382.73;35.15;;;;;;;2.10;97.11;99419.09;5007410;27;103513;-62
2021/11/11 07:48:06;;;;;;;50.20;20.92;;;;;;;2.33;97.94;99416.69;5020790;27;103326;-62
2021/11/11 07:50:35;;;;;;;97.25;22.00;;;;;;;2.61;95.83;99416.78;5020232;27;102781;-62
2021/11/11 07:53:08;;;;;;;18.95;16.92;;;;;;;2.82;95.72;99414.38;4995744;27;104236;-61
2021/11/11 07:55:38;;;;;;;122.28;26.30;;;;;;;2.98;94.04;99422.59;5003062;27;103622;-70
2021/11/11 07:58:08;;;;;;;380.30;32.55;;;;;;;2.77;91.83;99425.88;5020679;27;102994;-62
2021/11/11 08:00:41;;;;;;;300.73;33.38;;;;;;;2.74;92.85;99424.19;5012829;27;102979;-61
2021/11/11 08:03:09;;;;;;;419.15;38.83;;;;;;;2.51;90.72;99436.19;4998273;27;103968;-62
2021/11/11 08:05:38;;;;;;;26.23;17.60;;;;;;;2.93;91.52;99433.19;5018578;27;103419;-61
2021/11/11 08:08:06;;;;;;;17.98;16.27;;;;;;;3.48;91.16;99423.66;4994607;27;103218;-62
2021/11/11 08:10:35;;;;;;;17.75;16.15;;;;;;;3.79;90.15;99426.94;4995904;27;102655;-62
2021/11/11 08:13:03;;;;;;;21.55;19.15;;;;;;;3.70;87.83;99429.03;5015896;27;104073;-62
2021/11/11 08:15:33;;;;;;;25.83;17.45;;;;;;;3.98;88.60;99425.44;4993485;27;103324;-62
2021/11/11 08:18:01;;;;;;;20.98;16.73;;;;;;;4.19;88.03;99430.78;4991462;27;104224;-62
2021/11/11 08:20:29;;;;;;;36.03;18.25;;;;;;;4.29;86.73;99429.59;4998710;27;102857;-61
2021/11/11 08:22:57;;;;;;;54.33;21.35;;;;;;;4.28;86.60;99433.97;5016356;27;102972;-62
2021/11/11 08:25:26;;;;;;;21.00;17.87;;;;;;;4.44;86.66;99439.47;5001610;27;104262;-62
2021/11/11 08:27:56;;;;;;;19.73;17.25;;;;;;;4.68;86.43;99430.75;5013234;27;103207;-62
2021/11/11 08:30:24;;;;;;;18.10;16.48;;;;;;;5.05;85.18;99438.09;5004341;27;102918;-62
2021/11/11 08:32:54;;;;;;;16.48;14.98;;;;;;;5.28;84.64;99425.78;4999014;27;104020;-62
2021/11/11 08:35:24;;;;;;;17.87;16.27;;;;;;;5.61;83.42;99435.84;4995007;27;103329;-62
2021/11/11 08:37:54;;;;;;;17.75;15.98;;;;;;;6.00;82.01;99436.84;5012883;27;103429;-69
2021/11/11 08:40:23;;;;;;;16.80;15.27;;;;;;;6.35;80.35;99433.56;5028511;27;103147;-62
2021/11/11 08:42:54;;;;;;;18.63;16.93;;;;;;;6.35;79.28;99432.69;5016231;27;102803;-69
2021/11/11 08:45:23;;;;;;;18.97;17.10;;;;;;;5.96;82.52;99443.13;5002395;27;103283;-69
2021/11/11 08:47:55;;;;;;;17.17;15.65;;;;;;;6.58;81.39;99429.06;5011330;27;103260;-69
2021/11/11 08:50:25;;;;;;;20.20;18.27;;;;;;;6.07;79.98;99438.28;5025158;27;102837;-69
2021/11/11 08:52:55;;;;;;;19.58;17.67;;;;;;;6.08;82.60;99434.75;5027786;27;102648;-69
2021/11/11 08:55:25;;;;;;;19.92;17.98;;;;;;;6.40;79.39;99441.22;5037218;27;103208;-69
2021/11/11 08:57:54;;;;;;;18.80;17.02;;;;;;;6.66;79.37;99435.66;5027265;27;103205;-69
2021/11/11 09:00:25;;;;;;;17.63;15.93;;;;;;;7.08;78.90;99435.47;5030541;27;102967;-69
2021/11/11 09:02:59;;;;;;;17.23;15.63;;;;;;;7.54;77.17;99429.75;5025662;27;102586;-69
2021/11/11 09:05:30;;;;;;;17.95;16.25;;;;;;;7.71;75.58;99438.59;5030535;27;104722;-69
2021/11/11 09:08:03;;;;;;;16.75;15.15;;;;;;;7.84;75.66;99439.69;5012068;27;103339;-69
2021/11/11 09:10:36;;;;;;;21.33;19.30;;;;;;;7.19;77.02;99441.09;5027895;27;102546;-70
2021/11/11 09:13:25;;;;;;;20.15;18.10;;;;;;;7.52;76.75;99431.59;5026909;27;102587;-69
2021/11/11 09:15:54;;;;;;;19.13;17.33;;;;;;;7.73;77.54;99429.69;5030425;27;103288;-69
2021/11/11 09:18:23;;;;;;;22.20;20.10;;;;;;;7.03;81.35;99434.00;5030255;27;103327;-70
2021/11/11 09:21:06;;;;;;;22.05;19.83;;;;;;;6.93;81.51;99437.03;5000280;27;102771;-67
2021/11/11 09:23:35;;;;;;;20.60;18.60;;;;;;;7.29;79.87;99439.75;5021982;27;102665;-67
2021/11/11 09:26:05;;;;;;;21.65;19.50;;;;;;;7.13;80.68;99449.25;5021709;27;103358;-67
2021/11/11 09:28:36;;;;;;;19.45;17.40;;;;;;;7.46;78.29;99447.69;5003506;27;103197;-61
2021/11/11 09:31:05;;;;;;;16.50;13.43;;;;;;;6.57;82.25;99445.75;5031495;27;102680;-60
2021/11/11 09:33:35;;;;;;;16.27;12.67;;;;;;;6.02;83.94;99458.63;5027673;27;102728;-60
2021/11/11 09:36:03;;;;;;;15.97;13.10;;;;;;;6.30;83.67;99448.66;5014571;27;103252;-60
2021/11/11 09:38:32;;;;;;;17.00;13.50;;;;;;;6.01;83.42;99454.28;5017363;27;102664;-60
2021/11/11 09:41:00;;;;;;;18.13;14.47;;;;;;;6.68;82.66;99448.75;5019974;27;102614;-60
2021/11/11 09:43:37;;;;;;;16.27;13.20;;;;;;;6.95;81.00;99455.38;5004343;27;103938;-60
2021/11/11 09:46:06;;;;;;;16.87;12.13;;;;;;;7.28;80.16;99461.69;5017688;27;103877;-61
2021/11/11 09:48:36;;;;;;;16.17;13.83;;;;;;;6.38;83.45;99469.31;5035891;27;103201;-67
2021/11/11 09:51:05;;;;;;;16.63;13.47;;;;;;;5.41;85.70;99475.09;5025422;27;102733;-66
2021/11/11 09:53:41;;;;;;;17.40;12.17;;;;;;;5.55;87.53;99467.53;5007451;27;102757;-67
2021/11/11 09:59:12;;;;;;;18.97;13.57;;;;;;;6.05;84.53;99466.34;5025380;27;103201;-68
2021/11/11 10:01:42;;;;;;;14.60;12.97;;;;;;;5.33;85.03;99470.16;5034889;27;102830;-67
2021/11/11 10:04:13;;;;;;;18.03;15.23;;;;;;;4.56;90.91;99467.84;5031500;27;103140;-67
2021/11/11 10:06:41;;;;;;;15.27;13.60;;;;;;;4.80;90.63;99468.72;5029764;27;104222;-60
2021/11/11 10:09:14;;;;;;;18.20;14.77;;;;;;;5.46;87.08;99470.53;5016286;27;103170;-68
2021/11/11 10:11:50;;;;;;;15.30;13.73;;;;;;;5.44;87.21;99472.34;5034769;27;102720;-67
2021/11/11 10:14:22;;;;;;;16.50;14.37;;;;;;;5.63;84.79;99483.81;5022460;27;102668;-67
2021/11/11 10:16:53;;;;;;;15.23;12.23;;;;;;;5.75;86.76;99481.53;5029376;27;102643;-68
2021/11/11 10:19:31;;;;;;;16.10;13.80;;;;;;;5.23;84.67;99484.50;5023856;27;103214;-67
2021/11/11 10:22:22;;;;;;;18.03;14.23;;;;;;;5.15;86.65;99479.56;5028587;27;103178;-61
2021/11/11 10:25:04;;;;;;;15.17;13.57;;;;;;;5.18;87.76;99476.84;5001678;27;102831;-61
2021/11/11 10:27:37;;;;;;;15.07;13.50;;;;;;;5.73;86.39;99479.91;5002059;27;103206;-61
2021/11/11 10:30:10;;;;;;;15.73;14.13;;;;;;;5.21;85.64;99471.50;5022609;27;103265;-65
2021/11/11 10:32:42;;;;;;;17.77;14.50;;;;;;;5.30;88.10;99465.03;5021376;27;103091;-60
2021/11/11 10:35:13;;;;;;;15.87;14.23;;;;;;;5.17;89.07;99456.78;5014998;27;102768;-61
2021/11/11 10:37:42;;;;;;;;;;;;;;;5.40;86.49;99457.66;5024525;27;104220;-60
2021/11/11 10:40:11;;;;;;;;;;;;;;;6.46;85.51;99448.00;5019928;27;103163;-61
2021/11/11 10:42:42;;;;;;;;;;;;;;;6.20;86.43;99442.06;5023413;27;102633;-62
2021/11/11 10:45:11;;;;;;;;;;;;;;;5.64;87.74;99448.81;5032854;27;102645;-64
2021/11/11 10:47:40;;;;;;;;;;;;;;;5.89;87.36;99446.06;5021871;27;103201;-63
2021/11/11 10:50:10;;;;;;;;;;;;;;;5.83;85.01;99434.91;5006932;27;103157;-61
2021/11/11 10:52:42;;;;;;;17.73;14.47;;;;;;;5.83;87.13;99444.53;4999173;27;103178;-62
2021/11/11 10:55:22;;;;;;;19.58;17.58;;;;;;;6.57;84.21;99436.06;5020855;27;102981;-61
2021/11/11 10:58:03;;;;;;;19.53;17.57;;;;;;;7.04;82.86;99440.97;5028716;27;103766;-62
2021/11/11 11:00:44;;;;;;;17.90;16.20;;;;;;;7.44;80.36;99444.25;5020423;27;103180;-62
2021/11/11 11:03:15;;;;;;;19.30;17.60;;;;;;;6.91;83.04;99448.53;5023877;27;102544;-61
2021/11/11 11:05:54;;;;;;;19.83;18.00;;;;;;;6.96;82.92;99451.84;5023818;27;102645;-61
2021/11/11 11:08:26;;;;;;;18.95;17.17;;;;;;;7.38;81.23;99448.97;4997504;27;103999;-61
2021/11/11 11:10:58;;;;;;;20.85;18.73;;;;;;;6.90;82.52;99446.84;5013144;27;103320;-61
2021/11/11 11:13:28;;;;;;;20.92;18.88;;;;;;;7.02;83.31;99446.28;5003819;27;102702;-61
2021/11/11 11:15:59;;;;;;;19.88;18.05;;;;;;;7.08;82.65;99438.09;5019307;27;103148;-61
2021/11/11 11:18:32;;;;;;;20.50;18.60;;;;;;;6.57;84.69;99422.94;5000605;27;103143;-62
2021/11/11 11:21:05;;;;;;;20.42;18.52;;;;;;;6.69;84.09;99426.81;5017317;27;103202;-62
2021/11/11 11:23:38;;;;;;;21.23;19.23;;;;;;;6.08;86.22;99429.50;5012763;27;102930;-62
2021/11/11 11:26:11;;;;;;;21.75;19.75;;;;;;;5.95;87.73;99424.84;5023613;27;103428;-61
2021/11/11 11:28:49;;;;;;;21.40;19.40;;;;;;;6.91;85.83;99422.28;4994288;27;103354;-62
2021/11/11 11:31:30;;;;;;;21.42;19.50;;;;;;;6.50;84.42;99431.19;5020553;27;103442;-62
2021/11/11 11:33:59;;;;;;;23.05;20.83;;;;;;;6.13;87.86;99431.91;5016002;27;102767;-61
2021/11/11 11:36:37;;;;;;;22.43;20.33;;;;;;;6.62;87.09;99425.38;5012107;27;102806;-62
2021/11/11 11:39:08;;;;;;;21.07;19.07;;;;;;;5.98;87.22;99433.41;4990633;27;103965;-61
2021/11/11 11:41:39;;;;;;;21.45;19.45;;;;;;;5.96;88.19;99424.78;4988951;27;103442;-62
2021/11/11 11:44:20;;;;;;;21.00;19.10;;;;;;;7.31;83.77;99416.84;4987910;27;102911;-61
2021/11/11 11:47:09;;;;;;;18.98;17.27;;;;;;;7.58;80.11;99431.28;5004383;27;102718;-61
2021/11/11 11:49:40;;;;;;;20.02;18.23;;;;;;;7.62;81.24;99428.53;5008550;27;103321;-61
2021/11/11 11:52:10;;;;;;;24.73;22.35;;;;;;;7.02;84.26;99430.50;5011001;27;103501;-61
2021/11/11 11:54:57;;;;;;;25.15;22.73;;;;;;;6.66;85.15;99426.94;4991502;27;103275;-61
2021/11/11 11:57:34;;;;;;;25.40;23.00;;;;;;;6.63;84.77;99422.69;5012820;27;102770;-61
2021/11/11 12:00:08;;;;;;;22.98;20.85;;;;;;;7.18;83.43;99423.63;5011388;27;102634;-62
2021/11/11 12:02:51;;;;;;;22.77;20.58;;;;;;;7.28;82.62;99421.41;4990257;27;103349;-61
2021/11/11 12:05:30;;;;;;;26.10;23.60;;;;;;;6.05;87.44;99428.78;4996695;27;102866;-62